Terminal Aerodrome Forecast
Issued by NWS

Home | Current Version | Previous Version | Text Only | Print | Product List | Glossary On
Versions: 1 2 3 4 5 6 7 8 9 10 11 12 13 14 15 16 17 18 19
000
FTUS46 KSEW 261120
TAFHQM
TAF
KHQM 261120Z 2612/2712 27010KT P6SM OVC015
     FM261900 23015KT P6SM OVC025
      TEMPO 2620/2624 SCT030 BKN200
     FM270900 22010KT P6SM OVC015=

USA.gov is the U.S. government's official web portal to all federal, state and local government web resources and services.